• Join FlightAware (Why Join?)
  • Login
  • US Flag 
05:53PM EDT


 

Airport Tracker/Info


-or-


 

Live Flight TrackerFlight Track Log ✈ N700QA ✈ 23-Jul-2013 ✈ KLAX - KSJC

Flight Track Log - Related Links

Times and Time Zones

All times are in EDT time to prevent confusion due to time zone crossing. See the N700QA flight status page for this flight to view local times or setup timezone preferences in your user account.

Time Position Orientation Groundspeed Altitude Reporting Facility
EDT Latitude Longitude Course Direction KTS MPH feet Rate Location/Type
01:32PM 33.9333 -118.4500 228° Southwest 199 229 1,900  Level Southern California TRACON
01:34PM 33.8731 -118.5311 228° Southwest 243 280 4,800 2,280 Climbing Los Angeles Center
01:35PM 33.8400 -118.6194 246° West 272 313 7,500 2,160 Climbing Los Angeles Center
01:36PM 33.8272 -118.7000 259° West 284 327 9,300 1,980 Climbing Los Angeles Center
01:37PM 33.8131 -118.8153 262° West 292 336 11,700 1,980 Climbing Los Angeles Center
01:38PM 33.8119 -118.9150 269° West 304 350 13,400 1,560 Climbing Los Angeles Center
01:39PM 33.8583 -119.0039 302° West 313 360 15,000 1,500 Climbing Los Angeles Center
01:40PM 33.9250 -119.0806 316° Northwest 329 379 16,500 1,440 Climbing Los Angeles Center
01:41PM 33.9906 -119.1561 316° Northwest 326 375 18,100 1,320 Climbing Los Angeles Center
01:42PM 34.0550 -119.2347 315° West 330 380 19,300 1,200 Climbing Los Angeles Center
01:43PM 34.1358 -119.3289 316° Northwest 337 388 20,700 1,080 Climbing Los Angeles Center
01:44PM 34.2033 -119.4100 315° West 344 396 21,600 1,020 Climbing Los Angeles Center
01:45PM 34.2717 -119.4908 316° Northwest 343 395 22,900 960 Climbing Los Angeles Center
01:46PM 34.3400 -119.5742 315° West 349 402 23,600 780 Climbing Los Angeles Center
01:47PM 34.4128 -119.6594 316° Northwest 361 415 24,600 960 Climbing Los Angeles Center
01:48PM 34.5000 -119.7639 315° West 368 423 25,600 900 Climbing Los Angeles Center
01:49PM 34.5858 -119.8381 325° Northwest 377 434 26,500 720 Climbing Los Angeles Center
01:50PM 34.6650 -119.9014 327° Northwest 384 442 27,200 720 Climbing Los Angeles Center
01:51PM 34.7711 -119.9900 326° Northwest 384 442 28,000 360 Climbing Los Angeles Center
01:52PM 34.8631 -120.0658 326° Northwest 395 455 28,000  Level Los Angeles Center
01:53PM 34.9583 -120.1456 326° Northwest 413 475 28,100  Climbing Los Angeles Center
01:54PM 35.0547 -120.2256 326° Northwest 419 482 28,000  Descending Los Angeles Center
01:55PM 35.1514 -120.3072 325° Northwest 424 488 28,100  Climbing Los Angeles Center
01:56PM 35.2683 -120.4056 326° Northwest 428 493 28,100  Level Los Angeles Center
01:57PM 35.3658 -120.4883 325° Northwest 431 496 28,100  Level Los Angeles Center
01:58PM 35.4647 -120.5717 326° Northwest 433 498 28,100  Level Los Angeles Center
02:00PM 35.5628 -120.6542 326° Northwest 429 494 28,100  Level Los Angeles Center
02:01PM 35.6728 -120.7469 326° Northwest 428 493 28,100  Level Los Angeles Center
02:02PM 35.7697 -120.8308 325° Northwest 425 489 28,100 -120 Level Los Angeles Center
02:03PM 35.8675 -120.9150 325° Northwest 428 493 27,900 -780 Descending Los Angeles Center
02:04PM 35.9653 -120.9994 325° Northwest 429 494 26,500 -1,680 Descending Los Angeles Center
02:05PM 36.1142 -121.1258 326° Northwest 403 464 23,800 -1,800 Descending Oakland Center
02:06PM 36.2039 -121.2042 325° Northwest 397 457 22,100 -1,620 Descending Oakland Center
02:07PM 36.2919 -121.2817 325° Northwest 387 445 20,500 -1,020 Descending Oakland Center
02:08PM 36.3831 -121.3600 325° Northwest 398 458 20,100 -1,020 Descending Oakland Center
02:09PM 36.4744 -121.4400 325° Northwest 403 464 18,500 -1,620 Descending Oakland Center
02:10PM 36.5644 -121.5211 324° Northwest 399 459 16,900 -1,560 Descending Oakland Center
02:11PM 36.6522 -121.5956 326° Northwest 382 440 15,400 -1,380 Descending Oakland Center
02:12PM 36.7539 -121.5497 20° North 364 419 14,100 -1,320 Descending Oakland Center
02:13PM 36.7875 -121.4525 67° East 319 367 12,700 -1,860 Descending Oakland Center
02:14PM 36.8517 -121.4075 29° Northeast 301 346 10,300 -2,100 Descending Oakland Center
02:15PM 36.9203 -121.4514 333° Northwest 284 327 8,400 -1,140 Descending Oakland Center
02:16PM 36.9808 -121.5156 320° Northwest 285 328 8,000 -180 Descending Oakland Center
02:17PM 37.0544 -121.5883 322° Northwest 283 326 8,100 -480 Climbing Oakland Center
02:18PM 37.1128 -121.6569 317° Northwest 278 320 7,100 -1,380 Descending Oakland Center
02:19PM 37.1656 -121.7197 317° Northwest 274 315 5,300 -1,500 Descending Oakland Center
02:21PM 37.2169 -121.7744 320° Northwest 259 298 4,100 -1,320 Descending Oakland Center
02:22PM 37.2578 -121.8169 320° Northwest 217 250 2,600 -1,200 Descending Oakland Center
02:23PM 37.2919 -121.8528 320° Northwest 184 212 1,700 -840 Descending Oakland Center
02:24PM 37.3236 -121.8889 318° Northwest 166 191 1,000 -780 Descending Oakland Center
02:25PM 37.3575 -121.9264 319° Northwest 148 170 100 -900 Descending Oakland Center
02:27PM 37.3500 -121.9167 North  Level FlightAware Approximate